Time;durP1;ratioP1;P1;durP2;ratioP2;P2;SDS_P1;SDS_P2;PMS_P1;PMS_P2;Temp;Humidity;BMP_temperature;BMP_pressure;BME280_temperature;BME280_humidity;BME280_pressure;Samples;Min_cycle;Max_cycle;Signal;HPM_P1;HPM_P2
2022/03/01 00:01:54;;;;;;;16.77;8.05;;;4.00;90.60;;;;;;5096751;28;20024;-67
2022/03/01 00:04:20;;;;;;;15.75;8.45;;;4.00;90.80;;;;;;5096903;28;20095;-67
2022/03/01 00:06:46;;;;;;;16.58;9.10;;;4.00;90.50;;;;;;5096386;28;20048;-67
2022/03/01 00:09:12;;;;;;;12.93;7.32;;;3.90;90.60;;;;;;5078133;28;20121;-66
2022/03/01 00:11:38;;;;;;;13.30;8.18;;;3.90;90.60;;;;;;5096928;28;20063;-66
2022/03/01 00:14:05;;;;;;;17.63;8.15;;;3.90;90.60;;;;;;5078385;28;20054;-66
2022/03/01 00:16:31;;;;;;;18.50;8.02;;;3.90;90.90;;;;;;5096611;28;20461;-66
2022/03/01 00:18:59;;;;;;;16.25;7.88;;;3.80;90.50;;;;;;5078615;28;20048;-67
2022/03/01 00:21:25;;;;;;;14.13;8.43;;;3.80;90.70;;;;;;5079780;28;20058;-67
2022/03/01 00:23:52;;;;;;;16.40;8.07;;;3.80;90.80;;;;;;5097203;28;20028;-66
2022/03/01 00:26:17;;;;;;;14.02;8.40;;;3.80;90.70;;;;;;5096326;28;20103;-67
2022/03/01 00:28:43;;;;;;;16.97;8.07;;;3.80;90.90;;;;;;5095942;28;20104;-67
2022/03/01 00:31:09;;;;;;;17.27;8.82;;;3.70;90.90;;;;;;5096079;28;20020;-66
2022/03/01 00:33:35;;;;;;;13.02;7.78;;;3.70;91.00;;;;;;5077764;28;20081;-67
2022/03/01 00:36:01;;;;;;;14.32;7.75;;;3.70;91.00;;;;;;5078022;28;20024;-66
2022/03/01 00:38:27;;;;;;;20.07;8.73;;;3.70;90.90;;;;;;5095512;28;20449;-67
2022/03/01 00:40:53;;;;;;;12.52;8.20;;;3.70;90.70;;;;;;5095995;28;20526;-66
2022/03/01 00:43:18;;;;;;;14.48;7.60;;;3.70;90.60;;;;;;5077990;28;20059;-67
2022/03/01 00:45:44;;;;;;;12.82;7.68;;;3.70;90.70;;;;;;5097505;28;20105;-68
2022/03/01 00:48:10;;;;;;;15.07;7.90;;;3.70;90.70;;;;;;5078070;28;20024;-67
2022/03/01 00:50:36;;;;;;;15.67;7.47;;;3.70;90.80;;;;;;5077549;28;20374;-66
2022/03/01 00:53:01;;;;;;;14.38;7.63;;;3.70;90.70;;;;;;5095358;28;20108;-66
2022/03/01 00:55:27;;;;;;;14.67;7.13;;;3.70;90.60;;;;;;5077458;28;20385;-66
2022/03/01 00:57:53;;;;;;;15.67;8.83;;;3.70;90.60;;;;;;5077754;28;20020;-66
2022/03/01 01:00:19;;;;;;;17.40;8.00;;;3.70;90.80;;;;;;5077403;28;20428;-68
2022/03/01 01:02:44;;;;;;;13.18;7.60;;;3.70;90.80;;;;;;5095340;28;20487;-66
2022/03/01 01:05:10;;;;;;;15.70;8.87;;;3.60;90.80;;;;;;5095368;28;20111;-68
2022/03/01 01:07:36;;;;;;;14.38;7.72;;;3.60;90.80;;;;;;5095288;28;20027;-67
2022/03/01 01:10:04;;;;;;;13.60;7.70;;;3.60;90.90;;;;;;5077119;28;20024;-66
2022/03/01 01:12:30;;;;;;;11.18;6.90;;;3.60;91.00;;;;;;5077161;28;20033;-66
2022/03/01 01:14:55;;;;;;;16.63;7.83;;;3.60;90.90;;;;;;5076792;28;20024;-67
2022/03/01 01:17:21;;;;;;;13.25;7.32;;;3.60;90.80;;;;;;5095249;28;20610;-67
2022/03/01 01:19:47;;;;;;;16.40;7.63;;;3.60;90.80;;;;;;5076721;28;20020;-66
2022/03/01 01:24:56;;;;;;;14.65;6.72;;;3.60;90.70;;;;;;5095786;28;20487;-66
2022/03/01 01:27:22;;;;;;;15.17;7.30;;;3.60;90.70;;;;;;5094790;28;20073;-67
2022/03/01 01:29:48;;;;;;;13.77;7.50;;;3.50;90.90;;;;;;5094941;28;20032;-67
2022/03/01 01:32:13;;;;;;;12.67;7.20;;;3.50;90.90;;;;;;5076623;28;20028;-66
2022/03/01 01:34:39;;;;;;;22.60;7.10;;;3.40;90.90;;;;;;5094511;28;20472;-66
2022/03/01 01:37:05;;;;;;;13.00;7.00;;;3.40;91.00;;;;;;5094870;28;20027;-66
2022/03/01 01:39:30;;;;;;;13.60;6.83;;;3.40;91.00;;;;;;5076357;28;20035;-66
2022/03/01 01:41:56;;;;;;;12.07;7.17;;;3.30;91.20;;;;;;5076385;28;20085;-66
2022/03/01 01:44:21;;;;;;;18.57;7.30;;;3.30;91.30;;;;;;5076557;28;20035;-66
2022/03/01 01:46:47;;;;;;;12.73;6.30;;;3.30;91.40;;;;;;5095885;28;20040;-66
2022/03/01 01:49:13;;;;;;;13.57;7.63;;;3.20;91.30;;;;;;5076833;28;20122;-66
2022/03/01 01:51:38;;;;;;;11.40;6.23;;;3.20;91.40;;;;;;5095063;28;20028;-67
2022/03/01 01:54:05;;;;;;;13.00;6.97;;;3.20;91.70;;;;;;5094277;28;20290;-68
2022/03/01 01:56:31;;;;;;;11.63;6.40;;;3.10;91.70;;;;;;5094657;28;20020;-67
2022/03/01 01:58:57;;;;;;;18.37;7.47;;;3.00;91.70;;;;;;5094190;28;20150;-65
2022/03/01 02:01:23;;;;;;;14.97;6.90;;;3.00;92.00;;;;;;5076084;28;20016;-66
2022/03/01 02:03:49;;;;;;;12.93;6.35;;;2.90;92.00;;;;;;5096113;28;20050;-67
2022/03/01 02:06:15;;;;;;;14.53;6.97;;;2.90;92.00;;;;;;5081436;28;20032;-67
2022/03/01 02:08:40;;;;;;;12.25;6.78;;;2.90;92.20;;;;;;5098000;28;20426;-67
2022/03/01 02:11:08;;;;;;;18.43;7.03;;;2.80;92.20;;;;;;5094371;28;20036;-66
2022/03/01 02:13:34;;;;;;;14.23;6.80;;;2.80;92.20;;;;;;5075669;28;20111;-67
2022/03/01 02:16:00;;;;;;;12.68;6.63;;;2.70;92.20;;;;;;5094130;28;20472;-66
2022/03/01 02:18:25;;;;;;;15.02;6.32;;;2.70;92.20;;;;;;5075357;28;20028;-66
2022/03/01 02:20:51;;;;;;;13.47;6.80;;;2.70;92.30;;;;;;5094406;28;20043;-67
2022/03/01 02:23:17;;;;;;;15.27;8.13;;;2.60;92.30;;;;;;5075487;28;20020;-66
2022/03/01 02:25:42;;;;;;;13.88;6.93;;;2.60;92.30;;;;;;5075512;28;20024;-67
2022/03/01 02:28:08;;;;;;;13.80;6.70;;;2.50;92.40;;;;;;5093993;28;20024;-66
2022/03/01 02:30:34;;;;;;;13.97;7.20;;;2.50;92.40;;;;;;5093734;28;20028;-67
2022/03/01 02:33:00;;;;;;;14.55;7.13;;;2.50;92.50;;;;;;5093862;28;20035;-66
2022/03/01 02:35:26;;;;;;;15.57;7.30;;;2.50;92.60;;;;;;5093695;28;20066;-65
2022/03/01 02:37:52;;;;;;;15.85;7.15;;;2.50;92.50;;;;;;5093443;28;20753;-66
2022/03/01 02:40:19;;;;;;;18.33;7.50;;;2.40;92.40;;;;;;5075536;28;20035;-65
2022/03/01 02:42:46;;;;;;;13.27;7.03;;;2.40;92.50;;;;;;5075356;28;20028;-65
2022/03/01 02:45:16;;;;;;;12.65;6.35;;;2.40;92.60;;;;;;5094804;28;20028;-67
2022/03/01 02:47:43;;;;;;;15.10;7.20;;;2.40;92.60;;;;;;5094731;28;20387;-65
2022/03/01 02:50:10;;;;;;;14.40;6.78;;;2.30;92.60;;;;;;5093883;28;20433;-66
2022/03/01 02:52:35;;;;;;;12.65;6.93;;;2.30;92.60;;;;;;5093789;28;20081;-66
2022/03/01 02:55:03;;;;;;;17.15;7.18;;;2.40;92.60;;;;;;5093381;28;20431;-65
2022/03/01 02:57:29;;;;;;;14.18;6.80;;;2.30;92.70;;;;;;5093271;28;20342;-66
2022/03/01 02:59:55;;;;;;;16.00;7.60;;;2.30;92.70;;;;;;5075484;28;20028;-64
2022/03/01 03:02:21;;;;;;;16.25;6.97;;;2.30;92.70;;;;;;5093422;28;20032;-66
2022/03/01 03:04:47;;;;;;;13.43;6.27;;;2.30;92.70;;;;;;5093338;28;20047;-66
2022/03/01 03:07:13;;;;;;;14.77;6.97;;;2.30;92.80;;;;;;5093341;28;20477;-65
2022/03/01 03:09:39;;;;;;;14.88;6.72;;;2.30;92.80;;;;;;5094198;28;20033;-66
2022/03/01 03:12:06;;;;;;;16.03;6.77;;;2.20;92.80;;;;;;5095670;28;20021;-66
2022/03/01 03:14:32;;;;;;;17.65;7.43;;;2.20;92.80;;;;;;5077827;28;20030;-65
2022/03/01 03:16:58;;;;;;;13.10;6.97;;;2.10;93.00;;;;;;5077486;28;20032;-65
2022/03/01 03:19:24;;;;;;;17.30;7.35;;;2.10;93.20;;;;;;5076870;28;20031;-64
2022/03/01 03:21:50;;;;;;;15.30;7.28;;;2.00;93.30;;;;;;5075122;28;20020;-67
2022/03/01 03:24:16;;;;;;;16.67;7.45;;;2.00;93.50;;;;;;5093788;28;20461;-65
2022/03/01 03:26:42;;;;;;;16.23;7.40;;;1.90;93.90;;;;;;5094550;28;20056;-66
2022/03/01 03:29:09;;;;;;;17.35;7.00;;;1.80;94.20;;;;;;5075414;28;20091;-65
2022/03/01 03:31:39;;;;;;;15.75;6.97;;;1.70;94.40;;;;;;5096055;28;20040;-66
2022/03/01 03:34:08;;;;;;;14.55;6.65;;;1.70;94.40;;;;;;5078871;28;20028;-66
2022/03/01 03:36:34;;;;;;;13.40;7.00;;;1.70;94.40;;;;;;5097035;28;20016;-65
2022/03/01 03:39:00;;;;;;;;;;;1.70;94.50;;;;;;5098501;28;20372;-67
2022/03/01 03:41:26;;;;;;;15.57;7.05;;;1.70;94.50;;;;;;5097732;28;20113;-66
2022/03/01 03:43:52;;;;;;;16.47;7.37;;;1.60;94.60;;;;;;5097158;28;20086;-66
2022/03/01 03:46:18;;;;;;;17.30;7.67;;;1.60;94.70;;;;;;5097302;28;20386;-66
2022/03/01 03:48:43;;;;;;;19.05;7.15;;;1.60;94.80;;;;;;5096710;28;20074;-66
2022/03/01 03:51:09;;;;;;;21.60;8.47;;;1.60;94.90;;;;;;5096672;28;20036;-66
2022/03/01 03:53:35;;;;;;;14.68;6.40;;;1.60;95.00;;;;;;5096763;28;20024;-65
2022/03/01 03:56:00;;;;;;;19.63;8.20;;;1.50;95.10;;;;;;5079461;28;20085;-65
2022/03/01 03:58:26;;;;;;;18.37;7.20;;;1.50;95.30;;;;;;5096643;28;20034;-66
2022/03/01 04:00:52;;;;;;;20.30;7.80;;;1.50;95.40;;;;;;5096701;28;20034;-66
2022/03/01 04:03:17;;;;;;;16.00;7.00;;;1.50;95.50;;;;;;5096375;28;20035;-66
2022/03/01 04:05:43;;;;;;;21.50;7.87;;;1.50;95.70;;;;;;5096498;28;20032;-67
2022/03/01 04:08:10;;;;;;;17.90;8.07;;;1.40;95.90;;;;;;5078816;28;20480;-67
2022/03/01 04:10:35;;;;;;;;;;;1.40;96.00;;;;;;5104119;28;20031;-66
2022/03/01 04:13:01;;;;;;;16.42;6.72;;;1.30;96.30;;;;;;5104099;28;19904;-66
2022/03/01 04:15:27;;;;;;;15.80;7.03;;;1.30;96.60;;;;;;5096318;28;20476;-66
2022/03/01 04:17:53;;;;;;;15.90;7.35;;;1.20;96.80;;;;;;5095886;28;20039;-66
2022/03/01 04:20:21;;;;;;;19.08;7.88;;;1.20;97.10;;;;;;5098584;28;20052;-66
2022/03/01 04:22:47;;;;;;;15.15;7.03;;;1.20;97.40;;;;;;5084613;28;20031;-66
2022/03/01 04:25:13;;;;;;;16.00;7.55;;;1.20;97.70;;;;;;5096960;28;20020;-66
2022/03/01 04:27:39;;;;;;;14.60;6.60;;;1.10;97.70;;;;;;5096320;28;20078;-66
2022/03/01 04:30:06;;;;;;;18.95;8.05;;;1.10;97.80;;;;;;5095959;28;20095;-66
2022/03/01 04:32:32;;;;;;;18.38;8.43;;;1.10;97.90;;;;;;5096106;28;20084;-66
2022/03/01 04:34:58;;;;;;;19.42;7.35;;;1.10;98.10;;;;;;5095868;28;20032;-66
2022/03/01 04:37:24;;;;;;;16.20;8.10;;;1.10;98.10;;;;;;5095685;28;20138;-67
2022/03/01 04:39:49;;;;;;;21.23;8.27;;;1.10;98.20;;;;;;5095992;28;20043;-66
2022/03/01 04:42:15;;;;;;;16.30;7.77;;;1.10;98.20;;;;;;5095429;28;20035;-66
2022/03/01 04:44:41;;;;;;;17.60;7.73;;;1.10;98.20;;;;;;5097505;28;20069;-66
2022/03/01 04:47:07;;;;;;;15.15;7.43;;;1.10;98.20;;;;;;5079308;28;20404;-66
2022/03/01 04:49:33;;;;;;;18.03;7.77;;;1.10;98.20;;;;;;5078964;28;20031;-66
2022/03/01 04:51:58;;;;;;;15.70;7.28;;;1.10;98.30;;;;;;5095929;28;20032;-66
2022/03/01 04:54:24;;;;;;;15.30;7.30;;;1.10;98.40;;;;;;5096483;28;20028;-66
2022/03/01 04:56:50;;;;;;;17.00;7.60;;;1.10;98.50;;;;;;5095969;28;20020;-66
2022/03/01 04:59:16;;;;;;;16.80;8.00;;;1.10;98.60;;;;;;5095757;28;20506;-66
2022/03/01 05:01:42;;;;;;;15.93;7.78;;;1.00;98.80;;;;;;5095632;28;20016;-67
2022/03/01 05:04:07;;;;;;;17.53;8.97;;;1.00;98.90;;;;;;5095581;28;20107;-67
2022/03/01 05:06:33;;;;;;;15.35;7.88;;;1.00;99.00;;;;;;5095450;28;20020;-67
2022/03/01 05:08:59;;;;;;;17.55;8.10;;;1.00;99.20;;;;;;5077118;28;20024;-67
2022/03/01 05:11:25;;;;;;;17.35;7.85;;;1.00;99.20;;;;;;5095387;28;20373;-66
2022/03/01 05:13:50;;;;;;;15.13;7.47;;;1.00;99.20;;;;;;5095096;28;20028;-67
2022/03/01 05:16:16;;;;;;;19.17;7.93;;;1.00;99.40;;;;;;5095197;28;20020;-66
2022/03/01 05:18:42;;;;;;;20.40;9.27;;;0.90;99.40;;;;;;5095060;28;20012;-67
2022/03/01 05:21:07;;;;;;;17.13;8.30;;;0.90;99.50;;;;;;5095308;28;20119;-66
2022/03/01 05:23:33;;;;;;;18.60;8.80;;;1.00;99.50;;;;;;5095115;28;20028;-66
2022/03/01 05:25:59;;;;;;;16.73;8.57;;;0.90;99.50;;;;;;5077014;28;20024;-66
2022/03/01 05:28:25;;;;;;;19.40;8.40;;;0.90;99.60;;;;;;5078745;28;20398;-66
2022/03/01 05:30:51;;;;;;;16.77;6.78;;;0.90;99.70;;;;;;5098246;28;20032;-66
2022/03/01 05:33:16;;;;;;;18.45;8.20;;;0.90;99.70;;;;;;5095116;28;20085;-66
2022/03/01 05:35:44;;;;;;;15.53;7.27;;;0.90;99.70;;;;;;5094909;28;20468;-66
2022/03/01 05:38:10;;;;;;;16.13;7.38;;;1.00;99.80;;;;;;5076178;28;20456;-67
2022/03/01 05:40:36;;;;;;;17.42;8.32;;;1.00;99.70;;;;;;5076630;28;20115;-67
2022/03/01 05:43:03;;;;;;;18.60;8.07;;;0.90;99.80;;;;;;5094988;28;20024;-65
2022/03/01 05:45:30;;;;;;;18.65;8.60;;;0.90;99.90;;;;;;5076437;28;20024;-67
2022/03/01 05:47:56;;;;;;;19.38;8.40;;;0.90;99.90;;;;;;5094871;28;20383;-67
2022/03/01 05:50:23;;;;;;;17.55;8.07;;;0.90;99.90;;;;;;5096722;28;20028;-66
2022/03/01 05:52:50;;;;;;;17.30;7.53;;;0.80;99.90;;;;;;5077754;28;20114;-66
2022/03/01 05:55:15;;;;;;;21.85;8.20;;;0.80;99.90;;;;;;5095635;28;20079;-66
2022/03/01 05:57:41;;;;;;;18.97;9.07;;;0.80;99.90;;;;;;5094693;28;20016;-67
2022/03/01 06:00:12;;;;;;;18.77;8.40;;;0.80;99.90;;;;;;5094257;28;20039;-65
2022/03/01 06:02:37;;;;;;;22.73;8.95;;;0.80;99.90;;;;;;5077089;28;20027;-66
2022/03/01 06:05:03;;;;;;;17.00;8.27;;;0.80;99.90;;;;;;5094550;28;20111;-66
2022/03/01 06:07:29;;;;;;;17.67;8.32;;;0.80;99.90;;;;;;5097375;28;20300;-67
2022/03/01 06:09:54;;;;;;;21.73;8.67;;;0.80;99.90;;;;;;5076289;28;20032;-66
2022/03/01 06:12:20;;;;;;;20.00;8.80;;;0.80;99.90;;;;;;5095290;28;20087;-66
2022/03/01 06:14:46;;;;;;;18.00;8.93;;;0.80;99.90;;;;;;5076662;28;20028;-67
2022/03/01 06:17:11;;;;;;;16.40;8.53;;;0.80;99.90;;;;;;5095651;28;20042;-66
2022/03/01 06:19:37;;;;;;;18.03;8.40;;;0.80;99.90;;;;;;5077251;28;20107;-66
2022/03/01 06:22:04;;;;;;;17.47;8.00;;;0.80;99.90;;;;;;5094420;28;20020;-68
2022/03/01 06:24:30;;;;;;;19.52;9.07;;;0.80;99.90;;;;;;5075658;28;20047;-66
2022/03/01 06:26:56;;;;;;;20.20;8.63;;;0.80;99.90;;;;;;5094481;28;20358;-66
2022/03/01 06:29:21;;;;;;;19.40;8.07;;;0.80;99.90;;;;;;5093555;28;20058;-65
2022/03/01 06:31:47;;;;;;;21.23;8.80;;;0.80;99.90;;;;;;5075659;28;20435;-66
2022/03/01 06:34:12;;;;;;;20.80;8.47;;;0.90;99.90;;;;;;5094012;28;20024;-66
2022/03/01 06:36:38;;;;;;;21.13;8.20;;;0.80;99.90;;;;;;5093783;28;20024;-66
2022/03/01 06:39:04;;;;;;;18.73;8.60;;;0.80;99.90;;;;;;5093907;28;20135;-66
2022/03/01 06:41:29;;;;;;;18.50;7.73;;;0.80;99.90;;;;;;5094215;28;20024;-66
2022/03/01 06:43:55;;;;;;;20.52;8.13;;;0.80;99.90;;;;;;5093898;28;20077;-66
2022/03/01 06:46:21;;;;;;;16.60;8.47;;;0.90;99.90;;;;;;5075454;28;20028;-66
2022/03/01 06:48:47;;;;;;;18.88;8.98;;;0.90;99.90;;;;;;5093632;28;20048;-65
2022/03/01 06:51:13;;;;;;;18.98;8.25;;;1.00;99.90;;;;;;5093993;28;20036;-66
2022/03/01 06:53:40;;;;;;;19.75;9.82;;;1.00;99.90;;;;;;5075398;28;20024;-66
2022/03/01 06:56:06;;;;;;;20.17;9.15;;;1.10;99.90;;;;;;5093468;28;20032;-66
2022/03/01 06:58:32;;;;;;;17.88;8.70;;;1.10;99.90;;;;;;5093383;28;20027;-67
2022/03/01 07:01:00;;;;;;;17.38;8.10;;;1.10;99.90;;;;;;5077686;28;20466;-67
2022/03/01 07:03:26;;;;;;;18.75;9.13;;;1.10;99.90;;;;;;5076069;28;20074;-65
2022/03/01 07:05:51;;;;;;;17.83;8.80;;;1.10;99.90;;;;;;5094280;28;20433;-64
2022/03/01 07:08:20;;;;;;;20.83;9.57;;;1.20;99.90;;;;;;5094425;28;20027;-64
2022/03/01 07:10:49;;;;;;;21.73;9.65;;;1.20;99.80;;;;;;5093473;28;20020;-64
2022/03/01 07:13:16;;;;;;;19.73;8.85;;;1.20;99.70;;;;;;5093112;28;20384;-65
2022/03/01 07:15:42;;;;;;;19.85;9.20;;;1.30;99.60;;;;;;5075178;28;20529;-66
2022/03/01 07:18:07;;;;;;;17.07;8.10;;;1.30;99.60;;;;;;5074891;28;20032;-72
2022/03/01 07:20:34;;;;;;;19.37;9.13;;;1.40;99.80;;;;;;5075000;28;20028;-67
2022/03/01 07:23:00;;;;;;;18.05;9.00;;;1.40;99.50;;;;;;5093048;28;20060;-69
2022/03/01 07:25:26;;;;;;;19.13;8.13;;;1.50;99.10;;;;;;5093632;28;20579;-67
2022/03/01 07:27:53;;;;;;;17.43;8.97;;;1.50;99.00;;;;;;5075395;28;20115;-69
2022/03/01 07:30:22;;;;;;;19.20;8.90;;;1.50;98.90;;;;;;5093433;28;20484;-67
2022/03/01 07:32:48;;;;;;;19.30;8.95;;;1.60;98.70;;;;;;5075492;28;20024;-67
2022/03/01 07:35:15;;;;;;;17.58;8.77;;;1.60;98.70;;;;;;5094868;28;20017;-68
2022/03/01 07:37:41;;;;;;;17.23;8.90;;;1.60;98.70;;;;;;5094832;28;20028;-66
2022/03/01 07:40:10;;;;;;;19.98;9.25;;;1.70;98.80;;;;;;5076132;28;20093;-66
2022/03/01 07:42:36;;;;;;;19.05;8.60;;;1.70;98.60;;;;;;5095254;28;20020;-68
2022/03/01 07:45:03;;;;;;;18.83;9.65;;;1.80;98.30;;;;;;5095947;28;20029;-69
2022/03/01 07:47:29;;;;;;;19.98;9.30;;;1.80;98.00;;;;;;5096185;28;20031;-68
2022/03/01 07:49:54;;;;;;;22.23;10.63;;;1.90;98.00;;;;;;5096526;28;20020;-66
2022/03/01 07:52:20;;;;;;;16.87;8.33;;;1.90;97.80;;;;;;5076659;28;20023;-66
2022/03/01 07:54:47;;;;;;;22.17;10.13;;;2.00;97.80;;;;;;5096122;28;20059;-67
2022/03/01 07:57:13;;;;;;;20.65;9.05;;;2.10;97.40;;;;;;5095261;28;20028;-67
2022/03/01 07:59:39;;;;;;;21.33;9.20;;;2.10;97.20;;;;;;5095294;28;20059;-66
2022/03/01 08:02:04;;;;;;;19.73;9.20;;;2.20;96.70;;;;;;5080551;28;20033;-67
2022/03/01 08:04:31;;;;;;;18.27;9.40;;;2.30;96.60;;;;;;5095374;28;20028;-67
2022/03/01 08:06:57;;;;;;;;;;;2.40;96.20;;;;;;5095000;28;20032;-66
2022/03/01 08:09:23;;;;;;;17.33;8.50;;;2.50;95.90;;;;;;5075557;28;19983;-65
2022/03/01 08:11:49;;;;;;;18.07;9.07;;;2.60;95.80;;;;;;5092749;28;20083;-65
2022/03/01 08:14:14;;;;;;;19.37;9.27;;;2.60;95.50;;;;;;5092610;28;20039;-63
2022/03/01 08:16:40;;;;;;;32.90;15.10;;;2.70;95.30;;;;;;5094069;28;20017;-65
2022/03/01 08:19:07;;;;;;;18.33;8.90;;;2.80;95.00;;;;;;5095989;28;20020;-64
2022/03/01 08:21:32;;;;;;;18.00;8.85;;;2.80;94.80;;;;;;5096840;28;20434;-66
2022/03/01 08:23:58;;;;;;;15.73;8.30;;;2.90;94.30;;;;;;5097034;28;20106;-62
2022/03/01 08:26:24;;;;;;;19.10;8.68;;;3.00;93.80;;;;;;5096946;28;20024;-62
2022/03/01 08:28:50;;;;;;;16.95;8.38;;;3.10;93.60;;;;;;5097119;28;20385;-64
2022/03/01 08:31:16;;;;;;;20.80;9.10;;;3.20;93.20;;;;;;5097699;28;20042;-66
2022/03/01 08:33:42;;;;;;;13.80;7.50;;;3.30;93.20;;;;;;5078977;28;20043;-66
2022/03/01 08:36:09;;;;;;;16.80;8.27;;;3.30;92.70;;;;;;5079430;28;20028;-65
2022/03/01 08:38:36;;;;;;;18.13;9.05;;;3.40;92.20;;;;;;5097367;28;20024;-66
2022/03/01 08:41:02;;;;;;;17.65;8.02;;;3.50;92.20;;;;;;5097197;28;20016;-65
2022/03/01 08:43:28;;;;;;;14.35;7.95;;;3.60;92.10;;;;;;5077521;28;20038;-66
2022/03/01 08:45:54;;;;;;;16.35;7.90;;;3.60;91.90;;;;;;5095948;28;20028;-66
2022/03/01 08:48:20;;;;;;;17.20;8.77;;;3.60;91.40;;;;;;5078298;28;20064;-66
2022/03/01 08:50:46;;;;;;;21.08;8.35;;;3.70;91.50;;;;;;5077758;28;20089;-68
2022/03/01 08:53:12;;;;;;;18.65;8.63;;;3.80;91.00;;;;;;5095656;28;20032;-67
2022/03/01 08:55:39;;;;;;;17.95;8.77;;;3.90;91.00;;;;;;5079234;28;20055;-67
2022/03/01 08:58:05;;;;;;;23.00;8.23;;;4.00;90.90;;;;;;5080157;28;20027;-66
2022/03/01 09:00:31;;;;;;;15.38;7.53;;;4.00;90.60;;;;;;5096441;28;20065;-66
2022/03/01 09:02:58;;;;;;;17.88;7.90;;;4.00;90.20;;;;;;5095340;28;20032;-67
2022/03/01 09:05:24;;;;;;;16.90;8.10;;;4.00;90.00;;;;;;5095221;28;20012;-67
2022/03/01 09:07:50;;;;;;;15.05;7.88;;;4.10;95.20;;;;;;5095260;28;20047;-68
2022/03/01 09:10:21;;;;;;;16.07;7.97;;;4.40;90.50;;;;;;5094922;28;20477;-67
2022/03/01 09:12:51;;;;;;;17.30;7.82;;;4.40;88.70;;;;;;5076414;28;20024;-67
2022/03/01 09:15:17;;;;;;;13.50;8.07;;;4.40;87.80;;;;;;5075430;28;20024;-66
2022/03/01 09:17:43;;;;;;;19.80;9.00;;;4.50;86.70;;;;;;5094587;28;20016;-66
2022/03/01 09:20:09;;;;;;;14.40;7.50;;;4.50;86.10;;;;;;5093506;28;20028;-67
2022/03/01 09:22:35;;;;;;;18.85;8.32;;;4.60;85.20;;;;;;5094324;28;20122;-67
2022/03/01 09:25:03;;;;;;;15.00;7.83;;;5.20;83.50;;;;;;5094628;28;20061;-66
2022/03/01 09:27:29;;;;;;;14.77;7.20;;;6.40;76.80;;;;;;5094919;28;20024;-66
2022/03/01 09:29:54;;;;;;;16.00;8.00;;;8.30;71.70;;;;;;5076463;28;20434;-67
2022/03/01 09:32:20;;;;;;;16.03;9.10;;;10.00;63.80;;;;;;5095952;28;20024;-67
2022/03/01 09:34:45;;;;;;;14.50;8.27;;;10.80;60.00;;;;;;5096418;28;20024;-67
2022/03/01 09:37:11;;;;;;;16.90;8.10;;;10.80;59.30;;;;;;5094889;28;20105;-67
2022/03/01 09:39:37;;;;;;;14.47;8.77;;;10.70;58.30;;;;;;5128485;22;20150;-66
2022/03/01 09:42:03;;;;;;;13.93;8.17;;;10.10;59.20;;;;;;5097645;28;20467;-67
2022/03/01 09:44:29;;;;;;;13.63;7.82;;;9.90;59.70;;;;;;5098105;28;20030;-67
2022/03/01 09:46:54;;;;;;;16.00;8.43;;;9.20;60.20;;;;;;5097555;28;20376;-66
2022/03/01 09:49:20;;;;;;;16.63;8.35;;;8.90;61.20;;;;;;5116446;28;20020;-66
2022/03/01 09:51:47;;;;;;;16.77;8.47;;;9.80;60.60;;;;;;5116039;28;20027;-66
2022/03/01 09:54:12;;;;;;;;;;;10.70;58.60;;;;;;5116345;28;20388;-65
2022/03/01 09:56:38;;;;;;;13.98;7.90;;;11.40;56.30;;;;;;5097999;28;19925;-66
2022/03/01 09:59:04;;;;;;;12.82;7.28;;;11.30;55.90;;;;;;5116733;28;20368;-65
2022/03/01 10:01:29;;;;;;;16.60;8.48;;;12.10;55.80;;;;;;5098299;28;20024;-67
2022/03/01 10:04:07;;;;;;;13.70;8.37;;;13.40;53.50;;;;;;5115832;28;20028;-66
2022/03/01 10:06:39;;;;;;;13.75;8.65;;;14.40;51.70;;;;;;5096961;28;20372;-66
2022/03/01 10:09:14;;;;;;;11.55;8.07;;;15.10;49.80;;;;;;5115517;28;20022;-66
2022/03/01 10:11:40;;;;;;;16.55;9.10;;;14.80;48.80;;;;;;5097003;28;20021;-66
2022/03/01 10:14:06;;;;;;;14.13;8.75;;;14.70;49.50;;;;;;5114915;28;20031;-67
2022/03/01 10:16:41;;;;;;;11.68;8.15;;;15.40;48.00;;;;;;5114941;28;20023;-66
2022/03/01 10:19:25;;;;;;;14.73;8.48;;;15.30;47.70;;;;;;5115220;28;20112;-66
2022/03/01 10:22:00;;;;;;;13.82;8.38;;;15.20;47.60;;;;;;5115684;28;20363;-66
2022/03/01 10:24:27;;;;;;;18.35;8.75;;;14.80;48.40;;;;;;5115115;28;20055;-66
2022/03/01 10:27:03;;;;;;;14.15;8.60;;;14.20;47.90;;;;;;5115763;28;20030;-67
2022/03/01 10:29:29;;;;;;;11.65;8.43;;;14.60;48.30;;;;;;5096390;28;20034;-66
2022/03/01 10:32:10;;;;;;;11.30;6.97;;;13.90;48.30;;;;;;5114107;28;20058;-66
2022/03/01 10:34:36;;;;;;;13.70;7.90;;;13.50;49.00;;;;;;5113717;28;20037;-65
2022/03/01 10:37:02;;;;;;;14.07;8.73;;;12.90;49.70;;;;;;5114160;28;20015;-66
2022/03/01 10:39:31;;;;;;;12.05;8.00;;;13.70;49.40;;;;;;5113118;28;20035;-66
2022/03/01 10:41:57;;;;;;;11.75;7.88;;;14.30;47.20;;;;;;5114152;28;20031;-65
2022/03/01 10:44:28;;;;;;;13.25;8.30;;;13.70;47.30;;;;;;5113829;28;20031;-66
2022/03/01 10:47:02;;;;;;;14.23;7.97;;;13.70;48.20;;;;;;5114425;28;20027;-67
2022/03/01 10:49:31;;;;;;;15.40;7.85;;;13.80;47.90;;;;;;5114481;28;20024;-66
2022/03/01 10:51:59;;;;;;;12.13;8.13;;;13.50;48.30;;;;;;5114324;28;20047;-66
2022/03/01 10:54:30;;;;;;;17.85;8.98;;;12.70;48.80;;;;;;5114181;28;20055;-66
2022/03/01 10:56:57;;;;;;;15.65;8.48;;;11.50;50.40;;;;;;5113750;28;20131;-65
2022/03/01 10:59:24;;;;;;;14.05;8.18;;;10.80;51.80;;;;;;5113438;28;20020;-66
2022/03/01 11:01:51;;;;;;;17.73;8.27;;;11.30;51.90;;;;;;5095107;28;20394;-66
2022/03/01 11:04:16;;;;;;;;;;;11.80;50.50;;;;;;5113911;28;20027;-66
2022/03/01 11:06:43;;;;;;;15.77;7.55;;;11.90;50.80;;;;;;5113294;28;19904;-66
2022/03/01 11:09:11;;;;;;;11.85;7.35;;;11.00;51.20;;;;;;5095147;28;20594;-67
2022/03/01 11:11:38;;;;;;;13.73;7.55;;;10.40;51.50;;;;;;5113841;28;20458;-66
2022/03/01 11:14:04;;;;;;;12.55;7.95;;;10.10;52.60;;;;;;5113560;28;20042;-66
2022/03/01 11:16:52;;;;;;;13.75;7.32;;;9.90;53.10;;;;;;5095180;28;20475;-66
2022/03/01 11:19:27;;;;;;;;;;;9.70;53.40;;;;;;5095362;28;20036;-67
2022/03/01 11:21:53;;;;;;;14.60;7.97;;;9.10;54.10;;;;;;5113673;28;19983;-65
2022/03/01 11:24:21;;;;;;;14.60;8.23;;;8.80;55.20;;;;;;5113704;28;20365;-66
2022/03/01 11:26:47;;;;;;;13.23;7.80;;;8.70;54.90;;;;;;5094853;28;20028;-66
2022/03/01 11:29:15;;;;;;;13.52;7.93;;;8.30;55.10;;;;;;5113412;28;20059;-66
2022/03/01 11:31:42;;;;;;;14.15;7.45;;;8.20;55.70;;;;;;5095277;28;20088;-65
2022/03/01 11:34:14;;;;;;;16.90;8.05;;;8.10;55.80;;;;;;5113620;28;20031;-67
2022/03/01 11:36:49;;;;;;;13.65;7.55;;;7.90;55.80;;;;;;5114797;28;20027;-70
2022/03/01 11:39:27;;;;;;;17.15;7.88;;;7.70;55.60;;;;;;5114824;28;20110;-67
2022/03/01 11:42:06;;;;;;;12.15;6.38;;;7.60;56.30;;;;;;5097850;28;20050;-68
2022/03/01 11:44:35;;;;;;;15.18;7.13;;;7.70;56.00;;;;;;5116717;28;20028;-68
2022/03/01 11:47:03;;;;;;;11.85;7.25;;;7.80;55.70;;;;;;5097818;28;20020;-68
2022/03/01 11:49:34;;;;;;;11.48;6.68;;;7.80;55.40;;;;;;5116072;28;20141;-69
2022/03/01 11:52:01;;;;;;;14.23;7.47;;;7.80;55.10;;;;;;5098937;28;20023;-67
2022/03/01 11:54:29;;;;;;;14.38;6.57;;;7.70;54.80;;;;;;5119782;28;20102;-69
2022/03/01 11:56:57;;;;;;;13.73;6.75;;;7.80;54.30;;;;;;5106226;28;20019;-73
2022/03/01 11:59:23;;;;;;;11.18;6.75;;;7.70;54.50;;;;;;5108608;28;20020;-71
2022/03/01 12:01:52;;;;;;;13.63;6.72;;;7.70;54.40;;;;;;5108395;28;20028;-70
2022/03/01 12:04:24;;;;;;;13.70;6.57;;;7.70;53.90;;;;;;5126441;28;20081;-70
2022/03/01 12:06:55;;;;;;;13.32;6.20;;;7.70;53.20;;;;;;5107839;28;20235;-70
2022/03/01 12:09:23;;;;;;;12.00;6.18;;;7.60;52.30;;;;;;5104578;28;20075;-67
2022/03/01 12:11:49;;;;;;;11.65;5.97;;;7.50;52.20;;;;;;5122981;28;20027;-68
2022/03/01 12:14:19;;;;;;;10.50;5.80;;;7.60;51.80;;;;;;5122544;28;20046;-67
2022/03/01 12:16:46;;;;;;;11.10;6.20;;;7.60;51.90;;;;;;5102815;28;20467;-66
2022/03/01 12:19:11;;;;;;;;;;;7.60;52.00;;;;;;5120588;28;20031;-67
2022/03/01 12:21:39;;;;;;;12.48;6.32;;;7.70;53.10;;;;;;5117718;28;19904;-68
2022/03/01 12:24:06;;;;;;;10.70;5.68;;;7.80;53.70;;;;;;5099251;28;20095;-68
2022/03/01 12:26:42;;;;;;;16.88;6.45;;;7.90;53.90;;;;;;5100173;28;20059;-70
2022/03/01 12:29:10;;;;;;;10.80;5.90;;;8.00;54.10;;;;;;5121447;28;20451;-69
2022/03/01 12:31:35;;;;;;;12.60;6.15;;;8.10;53.50;;;;;;5124495;28;20441;-70
2022/03/01 12:34:04;;;;;;;12.80;6.90;;;8.20;53.30;;;;;;5125158;28;20051;-69
2022/03/01 12:36:37;;;;;;;11.80;6.90;;;8.20;53.10;;;;;;5104475;28;20092;-70
2022/03/01 12:39:10;;;;;;;10.98;6.38;;;8.20;52.80;;;;;;5103534;28;20031;-69
2022/03/01 12:41:36;;;;;;;15.07;6.70;;;8.30;52.50;;;;;;5119672;28;20016;-70
2022/03/01 12:44:05;;;;;;;10.82;6.03;;;8.40;52.30;;;;;;5118574;28;20038;-70
2022/03/01 12:46:32;;;;;;;9.57;5.85;;;8.50;52.40;;;;;;5117677;28;20102;-66
2022/03/01 12:49:00;;;;;;;11.57;5.80;;;8.50;51.70;;;;;;5117161;28;20031;-67